createdAt,value
2022-10-15T00:00:16.360Z,100.00
2022-10-15T00:08:00.321Z,100.00
2022-10-15T00:11:42.941Z,100.00
2022-10-15T00:15:25.624Z,100.00
2022-10-15T00:19:10.501Z,100.00
2022-10-15T00:22:53.208Z,100.00
2022-10-15T00:26:35.946Z,100.00
2022-10-15T00:30:18.842Z,100.00
2022-10-15T00:34:02.790Z,100.00
2022-10-15T00:38:14.144Z,100.00
2022-10-15T00:41:56.850Z,100.00
2022-10-15T00:45:39.556Z,100.00
2022-10-15T00:49:26.366Z,100.00
2022-10-15T00:53:17.100Z,100.00
2022-10-15T00:56:59.966Z,100.00
2022-10-15T01:00:42.762Z,100.00
2022-10-15T01:04:25.754Z,100.00
2022-10-15T01:08:27.660Z,100.00
2022-10-15T01:12:17.614Z,100.00
2022-10-15T01:16:05.636Z,100.00
2022-10-15T01:20:08.297Z,100.00
2022-10-15T01:24:29.077Z,100.00
2022-10-15T01:28:20.359Z,100.00
2022-10-15T01:32:08.245Z,100.00
2022-10-15T01:35:53.063Z,100.00
2022-10-15T01:39:40.229Z,100.00
2022-10-15T01:43:27.407Z,100.00
2022-10-15T01:47:16.089Z,100.00
2022-10-15T01:51:01.193Z,100.00
2022-10-15T01:54:45.074Z,100.00
2022-10-15T01:58:29.138Z,100.00
2022-10-15T02:02:13.798Z,100.00
2022-10-15T02:06:00.830Z,100.00
2022-10-15T02:09:49.829Z,100.00
2022-10-15T02:13:37.200Z,100.00
2022-10-15T02:17:26.144Z,100.00
2022-10-15T02:21:11.686Z,100.00
2022-10-15T02:24:57.856Z,100.00
2022-10-15T02:28:43.858Z,100.00
2022-10-15T02:32:28.535Z,100.00
2022-10-15T02:36:11.475Z,100.00
2022-10-15T02:39:54.205Z,100.00
2022-10-15T02:43:37.651Z,100.00
2022-10-15T02:47:20.458Z,100.00
2022-10-15T02:51:04.957Z,100.00
2022-10-15T02:54:47.624Z,100.00
2022-10-15T02:58:30.889Z,100.00
2022-10-15T03:02:16.775Z,100.00
2022-10-15T03:06:01.921Z,100.00
2022-10-15T03:09:45.966Z,100.00
2022-10-15T03:13:28.583Z,100.00
2022-10-15T03:17:11.298Z,100.00
2022-10-15T03:20:55.046Z,100.00
2022-10-15T03:24:37.726Z,100.00
2022-10-15T03:28:22.079Z,100.00
2022-10-15T03:32:05.032Z,100.00
2022-10-15T03:35:50.640Z,100.00
2022-10-15T03:39:33.291Z,100.00
2022-10-15T03:43:16.056Z,100.00
2022-10-15T03:47:00.098Z,100.00
2022-10-15T03:50:42.747Z,100.00
2022-10-15T03:54:25.398Z,100.00
2022-10-15T03:58:08.097Z,100.00
2022-10-15T04:01:50.750Z,100.00
2022-10-15T04:05:34.781Z,100.00
2022-10-15T04:09:17.659Z,100.00
2022-10-15T04:13:00.349Z,100.00
2022-10-15T04:16:43.036Z,100.00
2022-10-15T04:20:25.735Z,100.00
2022-10-15T04:24:10.925Z,100.00
2022-10-15T04:27:54.329Z,100.00
2022-10-15T04:31:37.533Z,100.00
2022-10-15T04:35:20.255Z,100.00
2022-10-15T04:39:03.059Z,100.00
2022-10-15T04:42:47.139Z,100.00
2022-10-15T04:46:29.798Z,100.00
2022-10-15T04:50:12.674Z,100.00
2022-10-15T04:53:55.945Z,100.00
2022-10-15T04:57:38.610Z,100.00
2022-10-15T05:01:23.006Z,100.00
2022-10-15T05:05:06.631Z,100.00
2022-10-15T05:08:50.104Z,100.00
2022-10-15T05:12:32.835Z,100.00
2022-10-15T05:16:17.399Z,100.00
2022-10-15T05:20:01.465Z,100.00
2022-10-15T05:23:44.172Z,100.00
2022-10-15T05:27:26.865Z,100.00
2022-10-15T05:31:14.869Z,100.00
2022-10-15T05:35:01.765Z,100.00
2022-10-15T05:38:44.548Z,100.00
2022-10-15T05:42:27.309Z,100.00
2022-10-15T05:46:10.067Z,100.00
2022-10-15T05:49:53.045Z,100.00
2022-10-15T05:53:37.614Z,100.00
2022-10-15T05:57:20.289Z,100.00
2022-10-15T06:01:06.910Z,100.00
2022-10-15T06:04:49.616Z,100.00
2022-10-15T06:08:32.677Z,100.00
2022-10-15T06:12:16.722Z,100.00
2022-10-15T06:15:59.424Z,100.00
2022-10-15T06:19:42.083Z,100.00
2022-10-15T06:23:24.831Z,100.00
2022-10-15T06:27:07.477Z,100.00
2022-10-15T06:30:51.574Z,100.00
2022-10-15T06:34:34.242Z,100.00
2022-10-15T06:38:16.931Z,100.00
2022-10-15T06:41:59.606Z,100.00
2022-10-15T06:45:44.883Z,100.00
2022-10-15T06:49:28.975Z,100.00
2022-10-15T06:53:11.618Z,100.00
2022-10-15T06:56:54.247Z,100.00
2022-10-15T07:00:37.003Z,100.00
2022-10-15T07:04:19.679Z,100.00
2022-10-15T07:08:03.740Z,100.00
2022-10-15T07:11:46.478Z,100.00
2022-10-15T07:15:29.321Z,100.00
2022-10-15T07:19:11.990Z,100.00
2022-10-15T07:22:57.634Z,100.00
2022-10-15T07:26:41.643Z,100.00
2022-10-15T07:30:27.294Z,100.00
2022-10-15T07:34:09.982Z,100.00
2022-10-15T07:37:52.621Z,100.00
2022-10-15T07:41:35.322Z,100.00
2022-10-15T07:45:19.523Z,100.00
2022-10-15T07:49:02.178Z,100.00
2022-10-15T07:52:44.850Z,100.00
2022-10-15T07:56:27.564Z,100.00
2022-10-15T08:00:11.035Z,100.00
2022-10-15T08:03:55.061Z,100.00
2022-10-15T08:07:37.872Z,100.00
2022-10-15T08:11:20.812Z,100.00
2022-10-15T08:15:03.556Z,100.00
2022-10-15T08:18:46.563Z,100.00
2022-10-15T08:22:30.579Z,100.00
2022-10-15T08:26:13.242Z,98.68
2022-10-15T08:29:57.379Z,98.64
2022-10-15T08:33:42.098Z,98.84
2022-10-15T08:37:24.730Z,99.64
2022-10-15T08:41:19.805Z,100.00
2022-10-15T08:45:04.122Z,100.00
2022-10-15T08:48:48.955Z,100.00
2022-10-15T08:52:39.930Z,100.00
2022-10-15T08:56:33.112Z,100.00
2022-10-15T09:00:20.402Z,100.00
2022-10-15T09:04:12.153Z,100.00
2022-10-15T09:07:58.137Z,100.00
2022-10-15T09:11:52.374Z,100.00
2022-10-15T09:15:38.427Z,100.00
2022-10-15T09:19:22.750Z,100.00
2022-10-15T09:23:13.149Z,100.00
2022-10-15T09:27:03.792Z,100.00
2022-10-15T09:30:48.571Z,100.00
2022-10-15T09:34:36.836Z,99.41
2022-10-15T09:38:28.733Z,98.24
2022-10-15T09:42:22.188Z,97.95
2022-10-15T09:46:07.126Z,92.10
2022-10-15T09:49:49.820Z,88.82
2022-10-15T09:53:42.845Z,90.30
2022-10-15T09:57:27.748Z,88.89
2022-10-15T10:01:19.725Z,87.56
2022-10-15T10:05:20.556Z,83.34
2022-10-15T10:09:03.398Z,82.76
2022-10-15T10:12:47.426Z,83.24
2022-10-15T10:16:32.176Z,81.44
2022-10-15T10:20:18.556Z,80.46
2022-10-15T10:24:20.135Z,78.91
2022-10-15T10:28:16.781Z,75.22
2022-10-15T10:31:59.495Z,73.57
2022-10-15T10:35:46.719Z,75.01
2022-10-15T10:39:30.285Z,72.68
2022-10-15T10:43:26.508Z,71.69
2022-10-15T10:47:15.504Z,70.08
2022-10-15T10:51:10.506Z,69.80
2022-10-15T10:55:03.058Z,70.10
2022-10-15T10:58:47.111Z,68.02
2022-10-15T11:02:29.952Z,67.83
2022-10-15T11:06:25.929Z,66.17
2022-10-15T11:10:12.553Z,67.77
2022-10-15T11:14:02.978Z,67.60
2022-10-15T11:17:50.645Z,65.84
2022-10-15T11:21:57.734Z,65.35
2022-10-15T11:25:45.029Z,65.91
2022-10-15T11:29:35.661Z,64.61
2022-10-15T11:33:28.988Z,64.27
2022-10-15T11:37:23.818Z,63.93
2022-10-15T11:41:18.236Z,64.76
2022-10-15T11:45:17.870Z,64.54
2022-10-15T11:49:09.939Z,63.39
2022-10-15T11:53:06.177Z,61.63
2022-10-15T11:56:51.873Z,61.01
2022-10-15T12:00:38.866Z,61.17
2022-10-15T12:04:28.948Z,61.52
2022-10-15T12:08:14.874Z,61.25
2022-10-15T12:12:04.671Z,61.00
2022-10-15T12:15:56.405Z,61.22
2022-10-15T12:19:42.870Z,61.00
2022-10-15T12:23:27.540Z,61.18
2022-10-15T12:27:23.461Z,60.70
2022-10-15T12:31:07.774Z,59.95
2022-10-15T12:34:55.550Z,60.05
2022-10-15T12:38:40.512Z,60.95
2022-10-15T12:42:25.315Z,60.32
2022-10-15T12:46:11.612Z,61.56
2022-10-15T12:50:05.550Z,61.66
2022-10-15T12:53:48.604Z,62.46
2022-10-15T12:57:54.596Z,61.28
2022-10-15T13:01:53.549Z,60.58
2022-10-15T13:05:37.102Z,60.07
2022-10-15T13:09:29.807Z,60.22
2022-10-15T13:13:17.808Z,59.46
2022-10-15T13:17:04.110Z,58.96
2022-10-15T13:20:48.971Z,59.49
2022-10-15T13:24:40.860Z,58.91
2022-10-15T13:28:31.226Z,59.59
2022-10-15T13:32:16.067Z,61.10
2022-10-15T13:36:06.805Z,61.09
2022-10-15T13:39:51.942Z,61.14
2022-10-15T13:43:34.643Z,61.34
2022-10-15T13:47:29.912Z,61.15
2022-10-15T13:51:13.351Z,59.90
2022-10-15T13:54:56.002Z,60.54
2022-10-15T13:58:39.272Z,58.53
2022-10-15T14:02:23.034Z,57.76
2022-10-15T14:06:17.073Z,56.51
2022-10-15T14:09:59.850Z,55.28
2022-10-15T14:13:46.405Z,55.31
2022-10-15T14:17:29.719Z,56.40
2022-10-15T14:21:14.808Z,56.69
2022-10-15T14:24:57.882Z,56.91
2022-10-15T14:28:41.518Z,58.25
2022-10-15T14:32:27.287Z,59.22
2022-10-15T14:36:25.993Z,59.05
2022-10-15T14:40:18.596Z,58.95
2022-10-15T14:44:18.459Z,58.01
2022-10-15T14:48:03.040Z,58.15
2022-10-15T14:51:47.200Z,58.16
2022-10-15T14:55:33.274Z,57.60
2022-10-15T14:59:18.813Z,58.55
2022-10-15T15:03:04.463Z,57.94
2022-10-15T15:06:49.030Z,57.98
2022-10-15T15:10:31.683Z,58.97
2022-10-15T15:14:22.166Z,60.29
2022-10-15T15:18:05.349Z,60.64
2022-10-15T15:21:49.344Z,60.68
2022-10-15T15:25:33.986Z,60.11
2022-10-15T15:29:16.753Z,59.61
2022-10-15T15:33:00.546Z,59.22
2022-10-15T15:36:43.495Z,59.24
2022-10-15T15:40:28.045Z,59.84
2022-10-15T15:44:12.540Z,60.69
2022-10-15T15:47:56.247Z,61.49
2022-10-15T15:51:38.930Z,62.43
2022-10-15T15:55:21.639Z,63.49
2022-10-15T15:59:05.635Z,63.79
2022-10-15T16:02:48.643Z,64.40
2022-10-15T16:06:31.399Z,64.90
2022-10-15T16:10:14.115Z,65.50
2022-10-15T16:13:56.739Z,66.01
2022-10-15T16:17:40.711Z,65.99
2022-10-15T16:21:23.601Z,66.51
2022-10-15T16:25:10.146Z,66.82
2022-10-15T16:28:52.831Z,66.40
2022-10-15T16:32:35.465Z,67.03
2022-10-15T16:36:19.511Z,67.76
2022-10-15T16:40:18.147Z,67.99
2022-10-15T16:44:00.808Z,68.18
2022-10-15T16:47:43.481Z,68.40
2022-10-15T16:51:27.648Z,69.00
2022-10-15T16:55:31.104Z,69.47
2022-10-15T16:59:13.736Z,69.75
2022-10-15T17:02:56.494Z,70.17
2022-10-15T17:06:40.514Z,70.56
2022-10-15T17:10:37.506Z,71.20
2022-10-15T17:14:20.606Z,71.60
2022-10-15T17:18:03.665Z,72.47
2022-10-15T17:21:48.331Z,73.17
2022-10-15T17:25:48.648Z,72.75
2022-10-15T17:29:33.567Z,72.76
2022-10-15T17:33:17.624Z,73.10
2022-10-15T17:37:02.095Z,72.77
2022-10-15T17:40:50.777Z,73.05
2022-10-15T17:44:36.299Z,71.95
2022-10-15T17:48:18.936Z,71.06
2022-10-15T17:52:02.968Z,71.61
2022-10-15T17:55:52.217Z,71.79
2022-10-15T17:59:34.892Z,71.77
2022-10-15T18:03:17.507Z,72.22
2022-10-15T18:07:00.418Z,72.01
2022-10-15T18:10:52.325Z,72.16
2022-10-15T18:14:35.327Z,71.27
2022-10-15T18:18:18.513Z,71.09
2022-10-15T18:22:01.214Z,71.00
2022-10-15T18:25:45.287Z,70.90
2022-10-15T18:29:28.014Z,71.09
2022-10-15T18:33:12.254Z,71.05
2022-10-15T18:36:55.031Z,70.61
2022-10-15T18:40:41.234Z,70.89
2022-10-15T18:44:27.797Z,70.71
2022-10-15T18:48:10.484Z,70.20
2022-10-15T18:51:54.127Z,70.63
2022-10-15T18:55:36.924Z,70.87
2022-10-15T18:59:19.611Z,71.41
2022-10-15T19:03:04.196Z,70.93
2022-10-15T19:06:48.986Z,71.29
2022-10-15T19:10:31.645Z,70.92
2022-10-15T19:14:15.712Z,70.93
2022-10-15T19:17:58.816Z,71.24
2022-10-15T19:21:42.948Z,71.73
2022-10-15T19:25:25.581Z,71.75
2022-10-15T19:29:08.304Z,71.77
2022-10-15T19:32:51.163Z,72.06
2022-10-15T19:36:37.089Z,71.94
2022-10-15T19:40:22.093Z,71.94
2022-10-15T19:44:21.542Z,72.52
2022-10-15T19:48:04.469Z,72.46
2022-10-15T19:51:48.308Z,72.87
2022-10-15T19:55:32.342Z,73.05
2022-10-15T19:59:27.615Z,73.16
2022-10-15T20:03:10.370Z,72.99
2022-10-15T20:06:53.625Z,73.31
2022-10-15T20:10:40.950Z,73.73
2022-10-15T20:14:36.051Z,73.81
2022-10-15T20:18:19.522Z,73.67
2022-10-15T20:22:02.245Z,73.93
2022-10-15T20:25:46.704Z,74.38
2022-10-15T20:29:55.464Z,75.06
2022-10-15T20:33:40.253Z,75.81
2022-10-15T20:37:22.932Z,76.05
2022-10-15T20:41:12.269Z,76.28
2022-10-15T20:45:30.359Z,77.05
2022-10-15T20:49:16.748Z,78.08
2022-10-15T20:52:59.842Z,79.30
2022-10-15T20:56:43.955Z,80.08
2022-10-15T21:00:40.982Z,81.28
2022-10-15T21:04:23.773Z,81.49
2022-10-15T21:08:06.588Z,81.83
2022-10-15T21:11:50.636Z,81.78
2022-10-15T21:15:54.971Z,81.99
2022-10-15T21:19:37.979Z,83.55
2022-10-15T21:23:20.636Z,83.76
2022-10-15T21:27:04.939Z,84.09
2022-10-15T21:34:46.885Z,84.53
2022-10-15T21:38:29.544Z,84.38
2022-10-15T21:42:13.724Z,84.80
2022-10-15T21:46:14.123Z,85.82
2022-10-15T21:49:56.841Z,86.18
2022-10-15T21:53:39.575Z,86.67
2022-10-15T21:57:24.013Z,86.68
2022-10-15T22:01:23.400Z,87.16
2022-10-15T22:05:07.026Z,88.06
2022-10-15T22:08:50.257Z,88.50
2022-10-15T22:12:34.373Z,89.23
2022-10-15T22:16:30.579Z,90.17
2022-10-15T22:20:13.361Z,91.26
2022-10-15T22:23:57.566Z,92.68
2022-10-15T22:27:41.651Z,93.78
2022-10-15T22:31:55.645Z,94.50
2022-10-15T22:35:38.925Z,95.30
2022-10-15T22:39:21.589Z,95.31
2022-10-15T22:43:05.670Z,95.39
2022-10-15T22:47:31.403Z,95.54
2022-10-15T22:51:20.906Z,95.27
2022-10-15T22:55:03.583Z,95.39
2022-10-15T22:58:48.271Z,95.37
2022-10-15T23:02:56.763Z,95.25
2022-10-15T23:06:39.763Z,94.87
2022-10-15T23:10:22.466Z,95.02
2022-10-15T23:14:08.549Z,95.04
2022-10-15T23:18:21.763Z,95.44
2022-10-15T23:22:04.423Z,95.74
2022-10-15T23:25:47.043Z,95.62
2022-10-15T23:29:31.071Z,96.26
2022-10-15T23:33:35.215Z,96.78
2022-10-15T23:37:17.890Z,96.93
2022-10-15T23:41:01.870Z,97.01
2022-10-15T23:44:45.935Z,96.83
2022-10-15T23:48:39.647Z,97.00
2022-10-15T23:52:22.636Z,96.77
2022-10-15T23:56:05.563Z,97.63
2022-10-15T23:59:49.542Z,98.05
